sensor_id;sensor_type;location;lat;lon;timestamp;P1;durP1;ratioP1;P2;durP2;ratioP2
64387;SDS011;50709;52.648;4.764;2024-02-26T00:00:48;13.23;;;6.35;;
64387;SDS011;50709;52.648;4.764;2024-02-26T00:03:13;12.18;;;6.32;;
64387;SDS011;50709;52.648;4.764;2024-02-26T00:05:39;8.57;;;4.88;;
64387;SDS011;50709;52.648;4.764;2024-02-26T00:08:04;8.93;;;5.38;;
64387;SDS011;50709;52.648;4.764;2024-02-26T00:10:31;9.48;;;5.45;;
64387;SDS011;50709;52.648;4.764;2024-02-26T00:12:57;10.43;;;6.90;;
64387;SDS011;50709;52.648;4.764;2024-02-26T00:15:25;11.27;;;6.10;;
64387;SDS011;50709;52.648;4.764;2024-02-26T00:18:11;7.57;;;4.80;;
64387;SDS011;50709;52.648;4.764;2024-02-26T00:20:36;11.80;;;5.47;;
64387;SDS011;50709;52.648;4.764;2024-02-26T00:23:01;12.77;;;6.03;;
64387;SDS011;50709;52.648;4.764;2024-02-26T00:25:27;9.65;;;5.55;;
64387;SDS011;50709;52.648;4.764;2024-02-26T00:28:13;10.55;;;6.60;;
64387;SDS011;50709;52.648;4.764;2024-02-26T00:30:38;12.75;;;7.78;;
64387;SDS011;50709;52.648;4.764;2024-02-26T00:33:04;11.30;;;6.85;;
64387;SDS011;50709;52.648;4.764;2024-02-26T00:35:29;11.13;;;6.20;;
64387;SDS011;50709;52.648;4.764;2024-02-26T00:37:57;11.32;;;6.28;;
64387;SDS011;50709;52.648;4.764;2024-02-26T00:40:28;10.53;;;5.90;;
64387;SDS011;50709;52.648;4.764;2024-02-26T00:42:54;8.90;;;5.15;;
64387;SDS011;50709;52.648;4.764;2024-02-26T00:45:19;11.00;;;6.22;;
64387;SDS011;50709;52.648;4.764;2024-02-26T00:47:44;11.68;;;6.75;;
64387;SDS011;50709;52.648;4.764;2024-02-26T00:50:13;11.07;;;6.38;;
64387;SDS011;50709;52.648;4.764;2024-02-26T00:52:38;12.90;;;5.95;;
64387;SDS011;50709;52.648;4.764;2024-02-26T00:55:04;9.88;;;5.70;;
64387;SDS011;50709;52.648;4.764;2024-02-26T00:57:32;10.00;;;5.18;;
64387;SDS011;50709;52.648;4.764;2024-02-26T01:00:17;10.48;;;5.82;;
64387;SDS011;50709;52.648;4.764;2024-02-26T01:02:43;10.27;;;5.80;;
64387;SDS011;50709;52.648;4.764;2024-02-26T01:05:28;14.05;;;6.60;;
64387;SDS011;50709;52.648;4.764;2024-02-26T01:07:54;12.90;;;6.30;;
64387;SDS011;50709;52.648;4.764;2024-02-26T01:10:21;11.82;;;6.38;;
64387;SDS011;50709;52.648;4.764;2024-02-26T01:13:26;11.18;;;6.05;;
64387;SDS011;50709;52.648;4.764;2024-02-26T01:16:11;12.00;;;6.10;;
64387;SDS011;50709;52.648;4.764;2024-02-26T01:18:58;13.05;;;6.57;;
64387;SDS011;50709;52.648;4.764;2024-02-26T01:21:23;14.05;;;7.00;;
64387;SDS011;50709;52.648;4.764;2024-02-26T01:23:49;15.35;;;7.60;;
64387;SDS011;50709;52.648;4.764;2024-02-26T01:26:14;12.13;;;6.63;;
64387;SDS011;50709;52.648;4.764;2024-02-26T01:28:42;12.85;;;6.72;;
64387;SDS011;50709;52.648;4.764;2024-02-26T01:31:09;13.98;;;6.53;;
64387;SDS011;50709;52.648;4.764;2024-02-26T01:33:35;13.60;;;6.75;;
64387;SDS011;50709;52.648;4.764;2024-02-26T01:36:21;15.70;;;8.15;;
64387;SDS011;50709;52.648;4.764;2024-02-26T01:38:46;14.43;;;7.28;;
64387;SDS011;50709;52.648;4.764;2024-02-26T01:41:13;12.13;;;6.80;;
64387;SDS011;50709;52.648;4.764;2024-02-26T01:43:39;10.57;;;6.07;;
64387;SDS011;50709;52.648;4.764;2024-02-26T01:46:04;13.98;;;6.22;;
64387;SDS011;50709;52.648;4.764;2024-02-26T01:48:34;13.07;;;6.53;;
64387;SDS011;50709;52.648;4.764;2024-02-26T01:51:20;15.73;;;7.97;;
64387;SDS011;50709;52.648;4.764;2024-02-26T01:53:45;11.32;;;5.82;;
64387;SDS011;50709;52.648;4.764;2024-02-26T01:56:11;11.40;;;5.97;;
64387;SDS011;50709;52.648;4.764;2024-02-26T01:58:59;14.90;;;7.05;;
64387;SDS011;50709;52.648;4.764;2024-02-26T02:01:45;10.10;;;6.25;;
64387;SDS011;50709;52.648;4.764;2024-02-26T02:04:18;11.77;;;6.15;;
64387;SDS011;50709;52.648;4.764;2024-02-26T02:06:44;15.40;;;7.80;;
64387;SDS011;50709;52.648;4.764;2024-02-26T02:09:14;12.63;;;6.70;;
64387;SDS011;50709;52.648;4.764;2024-02-26T02:11:41;10.93;;;6.03;;
64387;SDS011;50709;52.648;4.764;2024-02-26T02:14:06;14.80;;;6.65;;
64387;SDS011;50709;52.648;4.764;2024-02-26T02:16:32;12.60;;;6.50;;
64387;SDS011;50709;52.648;4.764;2024-02-26T02:18:59;15.75;;;7.28;;
64387;SDS011;50709;52.648;4.764;2024-02-26T02:21:45;12.05;;;6.05;;
64387;SDS011;50709;52.648;4.764;2024-02-26T02:24:11;11.80;;;6.25;;
64387;SDS011;50709;52.648;4.764;2024-02-26T02:26:38;11.05;;;6.22;;
64387;SDS011;50709;52.648;4.764;2024-02-26T02:29:05;13.38;;;6.88;;
64387;SDS011;50709;52.648;4.764;2024-02-26T02:31:52;10.23;;;5.95;;
64387;SDS011;50709;52.648;4.764;2024-02-26T02:34:25;14.15;;;7.60;;
64387;SDS011;50709;52.648;4.764;2024-02-26T02:37:30;13.30;;;6.95;;
64387;SDS011;50709;52.648;4.764;2024-02-26T02:40:19;9.55;;;5.53;;
64387;SDS011;50709;52.648;4.764;2024-02-26T02:42:45;11.57;;;5.28;;
64387;SDS011;50709;52.648;4.764;2024-02-26T02:45:11;10.40;;;5.30;;
64387;SDS011;50709;52.648;4.764;2024-02-26T02:47:37;12.77;;;6.88;;
64387;SDS011;50709;52.648;4.764;2024-02-26T02:50:03;12.82;;;7.30;;
64387;SDS011;50709;52.648;4.764;2024-02-26T02:52:30;14.60;;;7.95;;
64387;SDS011;50709;52.648;4.764;2024-02-26T02:54:55;13.23;;;7.20;;
64387;SDS011;50709;52.648;4.764;2024-02-26T02:57:20;16.60;;;6.90;;
64387;SDS011;50709;52.648;4.764;2024-02-26T03:00:08;15.88;;;8.80;;
64387;SDS011;50709;52.648;4.764;2024-02-26T03:02:34;12.80;;;6.05;;
64387;SDS011;50709;52.648;4.764;2024-02-26T03:05:01;12.77;;;7.40;;
64387;SDS011;50709;52.648;4.764;2024-02-26T03:07:31;12.30;;;7.28;;
64387;SDS011;50709;52.648;4.764;2024-02-26T03:09:57;14.02;;;7.88;;
64387;SDS011;50709;52.648;4.764;2024-02-26T03:12:23;12.05;;;7.05;;
64387;SDS011;50709;52.648;4.764;2024-02-26T03:14:48;15.18;;;7.13;;
64387;SDS011;50709;52.648;4.764;2024-02-26T03:17:14;13.38;;;7.15;;
64387;SDS011;50709;52.648;4.764;2024-02-26T03:19:39;12.88;;;6.38;;
64387;SDS011;50709;52.648;4.764;2024-02-26T03:22:05;13.05;;;7.63;;
64387;SDS011;50709;52.648;4.764;2024-02-26T03:24:50;13.85;;;6.38;;
64387;SDS011;50709;52.648;4.764;2024-02-26T03:27:17;12.60;;;7.22;;
64387;SDS011;50709;52.648;4.764;2024-02-26T03:29:43;14.77;;;6.78;;
64387;SDS011;50709;52.648;4.764;2024-02-26T03:32:09;11.93;;;6.75;;
64387;SDS011;50709;52.648;4.764;2024-02-26T03:34:35;14.45;;;5.90;;
64387;SDS011;50709;52.648;4.764;2024-02-26T03:37:01;13.18;;;7.53;;
64387;SDS011;50709;52.648;4.764;2024-02-26T03:39:26;9.30;;;5.18;;
64387;SDS011;50709;52.648;4.764;2024-02-26T03:41:51;12.00;;;7.07;;
64387;SDS011;50709;52.648;4.764;2024-02-26T03:44:17;12.70;;;7.05;;
64387;SDS011;50709;52.648;4.764;2024-02-26T03:46:42;13.00;;;6.28;;
64387;SDS011;50709;52.648;4.764;2024-02-26T03:49:08;12.38;;;6.53;;
64387;SDS011;50709;52.648;4.764;2024-02-26T03:51:35;10.48;;;5.40;;
64387;SDS011;50709;52.648;4.764;2024-02-26T03:54:01;10.77;;;5.38;;
64387;SDS011;50709;52.648;4.764;2024-02-26T03:56:27;13.27;;;8.07;;
64387;SDS011;50709;52.648;4.764;2024-02-26T03:58:53;11.18;;;6.40;;
64387;SDS011;50709;52.648;4.764;2024-02-26T04:01:18;12.18;;;6.75;;
64387;SDS011;50709;52.648;4.764;2024-02-26T04:03:44;12.52;;;7.07;;
64387;SDS011;50709;52.648;4.764;2024-02-26T04:06:30;11.57;;;6.40;;
64387;SDS011;50709;52.648;4.764;2024-02-26T04:08:59;12.75;;;7.18;;
64387;SDS011;50709;52.648;4.764;2024-02-26T04:11:28;9.63;;;5.80;;
64387;SDS011;50709;52.648;4.764;2024-02-26T04:13:54;9.43;;;5.78;;
64387;SDS011;50709;52.648;4.764;2024-02-26T04:16:20;11.60;;;5.60;;
64387;SDS011;50709;52.648;4.764;2024-02-26T04:18:47;10.13;;;5.97;;
64387;SDS011;50709;52.648;4.764;2024-02-26T04:21:14;9.52;;;5.28;;
64387;SDS011;50709;52.648;4.764;2024-02-26T04:23:39;10.18;;;6.15;;
64387;SDS011;50709;52.648;4.764;2024-02-26T04:26:06;12.93;;;6.07;;
64387;SDS011;50709;52.648;4.764;2024-02-26T04:28:32;13.77;;;6.28;;
64387;SDS011;50709;52.648;4.764;2024-02-26T04:31:17;9.73;;;4.95;;
64387;SDS011;50709;52.648;4.764;2024-02-26T04:33:42;7.43;;;4.22;;
64387;SDS011;50709;52.648;4.764;2024-02-26T04:36:28;9.07;;;5.10;;
64387;SDS011;50709;52.648;4.764;2024-02-26T04:38:56;9.80;;;5.85;;
64387;SDS011;50709;52.648;4.764;2024-02-26T04:41:25;10.73;;;5.75;;
64387;SDS011;50709;52.648;4.764;2024-02-26T04:43:51;9.50;;;5.30;;
64387;SDS011;50709;52.648;4.764;2024-02-26T04:46:38;10.57;;;5.95;;
64387;SDS011;50709;52.648;4.764;2024-02-26T04:49:03;10.60;;;6.28;;
64387;SDS011;50709;52.648;4.764;2024-02-26T04:51:30;9.45;;;5.85;;
64387;SDS011;50709;52.648;4.764;2024-02-26T04:54:17;10.02;;;6.00;;
64387;SDS011;50709;52.648;4.764;2024-02-26T04:56:44;7.32;;;4.97;;
64387;SDS011;50709;52.648;4.764;2024-02-26T04:59:09;8.10;;;5.00;;
64387;SDS011;50709;52.648;4.764;2024-02-26T05:01:35;8.63;;;4.68;;
64387;SDS011;50709;52.648;4.764;2024-02-26T05:04:20;9.30;;;5.45;;
64387;SDS011;50709;52.648;4.764;2024-02-26T05:06:48;9.07;;;5.30;;
64387;SDS011;50709;52.648;4.764;2024-02-26T05:09:18;9.77;;;5.00;;
64387;SDS011;50709;52.648;4.764;2024-02-26T05:11:44;9.82;;;5.78;;
64387;SDS011;50709;52.648;4.764;2024-02-26T05:14:10;9.55;;;5.30;;
64387;SDS011;50709;52.648;4.764;2024-02-26T05:16:35;7.13;;;4.30;;
64387;SDS011;50709;52.648;4.764;2024-02-26T05:19:01;5.97;;;3.55;;
64387;SDS011;50709;52.648;4.764;2024-02-26T05:21:46;9.43;;;4.60;;
64387;SDS011;50709;52.648;4.764;2024-02-26T05:24:14;8.88;;;5.10;;
64387;SDS011;50709;52.648;4.764;2024-02-26T05:26:40;7.72;;;4.38;;
64387;SDS011;50709;52.648;4.764;2024-02-26T05:29:26;8.20;;;5.00;;
64387;SDS011;50709;52.648;4.764;2024-02-26T05:32:31;5.03;;;3.05;;
64387;SDS011;50709;52.648;4.764;2024-02-26T05:34:56;5.80;;;3.70;;
64387;SDS011;50709;52.648;4.764;2024-02-26T05:37:23;5.53;;;3.70;;
64387;SDS011;50709;52.648;4.764;2024-02-26T05:39:48;7.13;;;3.78;;
64387;SDS011;50709;52.648;4.764;2024-02-26T05:42:14;5.85;;;3.25;;
64387;SDS011;50709;52.648;4.764;2024-02-26T05:44:39;6.55;;;3.60;;
64387;SDS011;50709;52.648;4.764;2024-02-26T05:47:05;4.45;;;2.85;;
64387;SDS011;50709;52.648;4.764;2024-02-26T05:49:30;5.90;;;3.45;;
64387;SDS011;50709;52.648;4.764;2024-02-26T05:51:58;6.13;;;3.75;;
64387;SDS011;50709;52.648;4.764;2024-02-26T05:54:24;4.78;;;3.17;;
64387;SDS011;50709;52.648;4.764;2024-02-26T05:56:50;8.00;;;3.80;;
64387;SDS011;50709;52.648;4.764;2024-02-26T05:59:40;7.38;;;3.65;;
64387;SDS011;50709;52.648;4.764;2024-02-26T06:02:06;7.75;;;3.80;;
64387;SDS011;50709;52.648;4.764;2024-02-26T06:04:31;14.15;;;5.43;;
64387;SDS011;50709;52.648;4.764;2024-02-26T06:06:56;7.15;;;4.43;;
64387;SDS011;50709;52.648;4.764;2024-02-26T06:09:22;7.30;;;3.92;;
64387;SDS011;50709;52.648;4.764;2024-02-26T06:11:48;14.57;;;5.45;;
64387;SDS011;50709;52.648;4.764;2024-02-26T06:14:13;7.60;;;3.75;;
64387;SDS011;50709;52.648;4.764;2024-02-26T06:16:43;8.60;;;4.55;;
64387;SDS011;50709;52.648;4.764;2024-02-26T06:19:08;6.93;;;3.58;;
64387;SDS011;50709;52.648;4.764;2024-02-26T06:21:54;11.32;;;4.53;;
64387;SDS011;50709;52.648;4.764;2024-02-26T06:24:22;8.63;;;4.25;;
64387;SDS011;50709;52.648;4.764;2024-02-26T06:26:53;8.27;;;4.47;;
64387;SDS011;50709;52.648;4.764;2024-02-26T06:29:18;7.22;;;4.13;;
64387;SDS011;50709;52.648;4.764;2024-02-26T06:31:43;7.25;;;3.90;;
64387;SDS011;50709;52.648;4.764;2024-02-26T06:34:09;8.48;;;3.92;;
64387;SDS011;50709;52.648;4.764;2024-02-26T06:36:34;9.45;;;4.70;;
64387;SDS011;50709;52.648;4.764;2024-02-26T06:39:00;6.55;;;3.50;;
64387;SDS011;50709;52.648;4.764;2024-02-26T06:41:25;8.05;;;4.10;;
64387;SDS011;50709;52.648;4.764;2024-02-26T06:43:55;10.57;;;4.88;;
64387;SDS011;50709;52.648;4.764;2024-02-26T06:46:20;6.63;;;3.13;;
64387;SDS011;50709;52.648;4.764;2024-02-26T06:48:47;6.70;;;3.67;;
64387;SDS011;50709;52.648;4.764;2024-02-26T06:51:13;6.65;;;3.47;;
64387;SDS011;50709;52.648;4.764;2024-02-26T06:53:39;7.65;;;3.70;;
64387;SDS011;50709;52.648;4.764;2024-02-26T06:56:04;8.07;;;4.32;;
64387;SDS011;50709;52.648;4.764;2024-02-26T06:58:30;6.38;;;3.40;;
64387;SDS011;50709;52.648;4.764;2024-02-26T07:00:55;7.00;;;3.65;;
64387;SDS011;50709;52.648;4.764;2024-02-26T07:03:21;6.50;;;3.47;;
64387;SDS011;50709;52.648;4.764;2024-02-26T07:05:47;6.65;;;3.97;;
64387;SDS011;50709;52.648;4.764;2024-02-26T07:08:13;5.15;;;3.15;;
64387;SDS011;50709;52.648;4.764;2024-02-26T07:10:39;4.38;;;2.67;;
64387;SDS011;50709;52.648;4.764;2024-02-26T07:13:04;6.88;;;3.53;;
64387;SDS011;50709;52.648;4.764;2024-02-26T07:15:30;7.03;;;3.67;;
64387;SDS011;50709;52.648;4.764;2024-02-26T07:17:55;5.60;;;3.63;;
64387;SDS011;50709;52.648;4.764;2024-02-26T07:20:21;7.15;;;3.80;;
64387;SDS011;50709;52.648;4.764;2024-02-26T07:22:46;6.95;;;3.38;;
64387;SDS011;50709;52.648;4.764;2024-02-26T07:25:12;6.32;;;3.70;;
64387;SDS011;50709;52.648;4.764;2024-02-26T07:27:39;4.90;;;2.70;;
64387;SDS011;50709;52.648;4.764;2024-02-26T07:30:05;5.65;;;3.15;;
64387;SDS011;50709;52.648;4.764;2024-02-26T07:32:33;4.90;;;3.17;;
64387;SDS011;50709;52.648;4.764;2024-02-26T07:34:58;4.50;;;2.75;;
64387;SDS011;50709;52.648;4.764;2024-02-26T07:37:23;3.83;;;2.55;;
64387;SDS011;50709;52.648;4.764;2024-02-26T07:39:49;3.35;;;2.30;;
64387;SDS011;50709;52.648;4.764;2024-02-26T07:42:15;5.05;;;2.90;;
64387;SDS011;50709;52.648;4.764;2024-02-26T07:44:40;6.43;;;3.85;;
64387;SDS011;50709;52.648;4.764;2024-02-26T07:47:08;4.50;;;2.45;;
64387;SDS011;50709;52.648;4.764;2024-02-26T07:49:36;4.05;;;2.88;;
64387;SDS011;50709;52.648;4.764;2024-02-26T07:52:01;4.55;;;2.95;;
64387;SDS011;50709;52.648;4.764;2024-02-26T07:54:26;5.13;;;2.80;;
64387;SDS011;50709;52.648;4.764;2024-02-26T07:56:52;3.53;;;2.55;;
64387;SDS011;50709;52.648;4.764;2024-02-26T07:59:17;3.65;;;2.15;;
64387;SDS011;50709;52.648;4.764;2024-02-26T08:01:43;5.10;;;2.85;;
64387;SDS011;50709;52.648;4.764;2024-02-26T08:04:08;6.00;;;3.20;;
64387;SDS011;50709;52.648;4.764;2024-02-26T08:06:34;4.20;;;2.75;;
64387;SDS011;50709;52.648;4.764;2024-02-26T08:08:59;6.05;;;2.72;;
64387;SDS011;50709;52.648;4.764;2024-02-26T08:11:24;5.45;;;2.58;;
64387;SDS011;50709;52.648;4.764;2024-02-26T08:13:50;4.95;;;2.70;;
64387;SDS011;50709;52.648;4.764;2024-02-26T08:16:15;6.72;;;2.72;;
64387;SDS011;50709;52.648;4.764;2024-02-26T08:18:41;4.07;;;2.30;;
64387;SDS011;50709;52.648;4.764;2024-02-26T08:21:06;2.22;;;1.80;;
64387;SDS011;50709;52.648;4.764;2024-02-26T08:23:33;4.57;;;2.60;;
64387;SDS011;50709;52.648;4.764;2024-02-26T08:25:58;4.95;;;2.50;;
64387;SDS011;50709;52.648;4.764;2024-02-26T08:28:24;4.63;;;2.38;;
64387;SDS011;50709;52.648;4.764;2024-02-26T08:30:50;4.03;;;2.53;;
64387;SDS011;50709;52.648;4.764;2024-02-26T08:33:15;2.72;;;2.08;;
64387;SDS011;50709;52.648;4.764;2024-02-26T08:35:40;6.65;;;3.00;;
64387;SDS011;50709;52.648;4.764;2024-02-26T08:38:06;3.63;;;2.08;;
64387;SDS011;50709;52.648;4.764;2024-02-26T08:40:31;4.20;;;1.88;;
64387;SDS011;50709;52.648;4.764;2024-02-26T08:42:56;4.38;;;2.97;;
64387;SDS011;50709;52.648;4.764;2024-02-26T08:45:22;4.45;;;2.60;;
64387;SDS011;50709;52.648;4.764;2024-02-26T08:47:48;4.75;;;2.45;;
64387;SDS011;50709;52.648;4.764;2024-02-26T08:50:13;5.75;;;2.78;;
64387;SDS011;50709;52.648;4.764;2024-02-26T08:52:39;3.03;;;2.15;;
64387;SDS011;50709;52.648;4.764;2024-02-26T08:55:05;5.20;;;2.55;;
64387;SDS011;50709;52.648;4.764;2024-02-26T08:57:33;5.93;;;3.03;;
64387;SDS011;50709;52.648;4.764;2024-02-26T08:59:59;7.00;;;2.85;;
64387;SDS011;50709;52.648;4.764;2024-02-26T09:02:25;2.75;;;2.10;;
64387;SDS011;50709;52.648;4.764;2024-02-26T09:04:51;4.93;;;2.25;;
64387;SDS011;50709;52.648;4.764;2024-02-26T09:07:19;4.00;;;2.45;;
64387;SDS011;50709;52.648;4.764;2024-02-26T09:09:45;4.88;;;2.50;;
64387;SDS011;50709;52.648;4.764;2024-02-26T09:12:10;2.88;;;2.25;;
64387;SDS011;50709;52.648;4.764;2024-02-26T09:14:35;3.50;;;2.38;;
64387;SDS011;50709;52.648;4.764;2024-02-26T09:17:01;3.80;;;2.13;;
64387;SDS011;50709;52.648;4.764;2024-02-26T09:19:26;4.13;;;2.55;;
64387;SDS011;50709;52.648;4.764;2024-02-26T09:21:54;2.83;;;1.58;;
64387;SDS011;50709;52.648;4.764;2024-02-26T09:24:23;4.45;;;2.35;;
64387;SDS011;50709;52.648;4.764;2024-02-26T09:26:49;4.60;;;2.40;;
64387;SDS011;50709;52.648;4.764;2024-02-26T09:29:15;3.50;;;2.17;;
64387;SDS011;50709;52.648;4.764;2024-02-26T09:31:40;3.05;;;1.95;;
64387;SDS011;50709;52.648;4.764;2024-02-26T09:34:06;4.13;;;2.70;;
64387;SDS011;50709;52.648;4.764;2024-02-26T09:36:32;4.28;;;2.20;;
64387;SDS011;50709;52.648;4.764;2024-02-26T09:38:58;4.45;;;2.40;;
64387;SDS011;50709;52.648;4.764;2024-02-26T09:41:24;3.75;;;2.25;;
64387;SDS011;50709;52.648;4.764;2024-02-26T09:43:56;6.05;;;3.75;;
64387;SDS011;50709;52.648;4.764;2024-02-26T09:46:22;4.97;;;2.72;;
64387;SDS011;50709;52.648;4.764;2024-02-26T09:48:51;5.53;;;2.60;;
64387;SDS011;50709;52.648;4.764;2024-02-26T09:51:16;4.68;;;2.03;;
64387;SDS011;50709;52.648;4.764;2024-02-26T09:53:43;7.90;;;2.95;;
64387;SDS011;50709;52.648;4.764;2024-02-26T09:56:11;4.13;;;2.28;;
64387;SDS011;50709;52.648;4.764;2024-02-26T09:58:36;6.70;;;2.85;;
64387;SDS011;50709;52.648;4.764;2024-02-26T10:01:03;4.95;;;2.55;;
64387;SDS011;50709;52.648;4.764;2024-02-26T10:03:38;6.70;;;3.13;;
64387;SDS011;50709;52.648;4.764;2024-02-26T10:06:09;4.40;;;2.50;;
64387;SDS011;50709;52.648;4.764;2024-02-26T10:08:36;6.68;;;2.85;;
64387;SDS011;50709;52.648;4.764;2024-02-26T10:11:05;3.90;;;2.28;;
64387;SDS011;50709;52.648;4.764;2024-02-26T10:13:36;2.90;;;2.00;;
64387;SDS011;50709;52.648;4.764;2024-02-26T10:16:02;6.78;;;3.22;;
64387;SDS011;50709;52.648;4.764;2024-02-26T10:18:44;5.28;;;2.90;;
64387;SDS011;50709;52.648;4.764;2024-02-26T10:21:19;4.07;;;2.53;;
64387;SDS011;50709;52.648;4.764;2024-02-26T10:23:45;6.43;;;2.78;;
64387;SDS011;50709;52.648;4.764;2024-02-26T10:26:12;4.18;;;2.40;;
64387;SDS011;50709;52.648;4.764;2024-02-26T10:28:39;4.65;;;2.30;;
64387;SDS011;50709;52.648;4.764;2024-02-26T10:31:05;3.78;;;2.13;;
64387;SDS011;50709;52.648;4.764;2024-02-26T10:33:32;5.57;;;2.75;;
64387;SDS011;50709;52.648;4.764;2024-02-26T10:36:00;4.65;;;2.58;;
64387;SDS011;50709;52.648;4.764;2024-02-26T10:38:26;3.30;;;2.13;;
64387;SDS011;50709;52.648;4.764;2024-02-26T10:40:51;3.13;;;1.60;;
64387;SDS011;50709;52.648;4.764;2024-02-26T10:43:17;2.70;;;1.88;;
64387;SDS011;50709;52.648;4.764;2024-02-26T10:45:43;3.08;;;2.30;;
64387;SDS011;50709;52.648;4.764;2024-02-26T10:48:10;4.22;;;2.60;;
64387;SDS011;50709;52.648;4.764;2024-02-26T10:50:38;4.95;;;2.50;;
64387;SDS011;50709;52.648;4.764;2024-02-26T10:53:05;4.38;;;2.95;;
64387;SDS011;50709;52.648;4.764;2024-02-26T10:55:52;4.40;;;2.25;;
64387;SDS011;50709;52.648;4.764;2024-02-26T10:58:29;4.45;;;2.75;;
64387;SDS011;50709;52.648;4.764;2024-02-26T11:00:57;4.55;;;2.50;;
64387;SDS011;50709;52.648;4.764;2024-02-26T11:03:22;4.78;;;2.33;;
64387;SDS011;50709;52.648;4.764;2024-02-26T11:05:49;5.10;;;2.40;;
64387;SDS011;50709;52.648;4.764;2024-02-26T11:08:21;3.67;;;2.42;;
64387;SDS011;50709;52.648;4.764;2024-02-26T11:10:48;3.95;;;2.03;;
64387;SDS011;50709;52.648;4.764;2024-02-26T11:13:18;3.47;;;2.50;;
64387;SDS011;50709;52.648;4.764;2024-02-26T11:15:44;3.28;;;2.08;;
64387;SDS011;50709;52.648;4.764;2024-02-26T11:18:12;3.55;;;2.63;;
64387;SDS011;50709;52.648;4.764;2024-02-26T11:20:39;4.57;;;2.00;;
64387;SDS011;50709;52.648;4.764;2024-02-26T11:23:06;4.82;;;2.70;;
64387;SDS011;50709;52.648;4.764;2024-02-26T11:25:33;2.95;;;2.38;;
64387;SDS011;50709;52.648;4.764;2024-02-26T11:28:01;5.82;;;2.42;;
64387;SDS011;50709;52.648;4.764;2024-02-26T11:30:32;4.13;;;2.65;;
64387;SDS011;50709;52.648;4.764;2024-02-26T11:33:04;4.75;;;2.53;;
64387;SDS011;50709;52.648;4.764;2024-02-26T11:35:32;4.97;;;2.50;;
64387;SDS011;50709;52.648;4.764;2024-02-26T11:38:01;4.15;;;2.30;;
64387;SDS011;50709;52.648;4.764;2024-02-26T11:40:26;4.82;;;2.33;;
64387;SDS011;50709;52.648;4.764;2024-02-26T11:42:52;4.32;;;2.47;;
64387;SDS011;50709;52.648;4.764;2024-02-26T11:48:11;3.83;;;2.10;;
64387;SDS011;50709;52.648;4.764;2024-02-26T11:50:46;3.17;;;2.10;;
64387;SDS011;50709;52.648;4.764;2024-02-26T11:53:34;4.40;;;2.38;;
64387;SDS011;50709;52.648;4.764;2024-02-26T11:58:53;3.17;;;2.10;;
64387;SDS011;50709;52.648;4.764;2024-02-26T12:04:06;3.58;;;1.80;;
64387;SDS011;50709;52.648;4.764;2024-02-26T12:06:46;3.53;;;2.45;;
64387;SDS011;50709;52.648;4.764;2024-02-26T12:09:11;5.35;;;2.35;;
64387;SDS011;50709;52.648;4.764;2024-02-26T12:11:38;3.80;;;2.08;;
64387;SDS011;50709;52.648;4.764;2024-02-26T12:14:05;3.90;;;2.55;;
64387;SDS011;50709;52.648;4.764;2024-02-26T12:19:08;5.28;;;2.60;;
64387;SDS011;50709;52.648;4.764;2024-02-26T12:21:35;6.47;;;2.70;;
64387;SDS011;50709;52.648;4.764;2024-02-26T12:24:11;4.70;;;2.78;;
64387;SDS011;50709;52.648;4.764;2024-02-26T12:26:41;4.90;;;2.60;;
64387;SDS011;50709;52.648;4.764;2024-02-26T12:29:07;5.78;;;2.90;;
64387;SDS011;50709;52.648;4.764;2024-02-26T12:31:33;3.22;;;2.50;;
64387;SDS011;50709;52.648;4.764;2024-02-26T12:34:02;6.18;;;2.47;;
64387;SDS011;50709;52.648;4.764;2024-02-26T12:36:28;6.88;;;2.85;;
64387;SDS011;50709;52.648;4.764;2024-02-26T12:38:54;8.00;;;3.28;;
64387;SDS011;50709;52.648;4.764;2024-02-26T12:41:20;8.02;;;2.80;;
64387;SDS011;50709;52.648;4.764;2024-02-26T12:43:46;5.20;;;2.53;;
64387;SDS011;50709;52.648;4.764;2024-02-26T12:46:12;5.10;;;2.35;;
64387;SDS011;50709;52.648;4.764;2024-02-26T12:48:39;3.67;;;2.25;;
64387;SDS011;50709;52.648;4.764;2024-02-26T12:51:04;4.53;;;2.90;;
64387;SDS011;50709;52.648;4.764;2024-02-26T12:53:31;4.25;;;2.33;;
64387;SDS011;50709;52.648;4.764;2024-02-26T12:55:57;4.45;;;2.65;;
64387;SDS011;50709;52.648;4.764;2024-02-26T12:58:23;5.32;;;2.47;;
64387;SDS011;50709;52.648;4.764;2024-02-26T13:00:53;5.13;;;2.85;;
64387;SDS011;50709;52.648;4.764;2024-02-26T13:03:20;3.67;;;2.15;;
64387;SDS011;50709;52.648;4.764;2024-02-26T13:05:47;3.95;;;2.20;;
64387;SDS011;50709;52.648;4.764;2024-02-26T13:08:22;5.28;;;2.50;;
64387;SDS011;50709;52.648;4.764;2024-02-26T13:10:49;6.07;;;2.90;;
64387;SDS011;50709;52.648;4.764;2024-02-26T13:13:16;5.28;;;2.42;;
64387;SDS011;50709;52.648;4.764;2024-02-26T13:15:42;6.40;;;3.20;;
64387;SDS011;50709;52.648;4.764;2024-02-26T13:18:12;2.35;;;1.92;;
64387;SDS011;50709;52.648;4.764;2024-02-26T13:20:39;5.63;;;3.00;;
64387;SDS011;50709;52.648;4.764;2024-02-26T13:23:06;6.43;;;3.03;;
64387;SDS011;50709;52.648;4.764;2024-02-26T13:25:35;4.65;;;2.88;;
64387;SDS011;50709;52.648;4.764;2024-02-26T13:28:05;5.70;;;2.63;;
64387;SDS011;50709;52.648;4.764;2024-02-26T13:30:34;3.58;;;2.40;;
64387;SDS011;50709;52.648;4.764;2024-02-26T13:33:12;5.25;;;3.13;;
64387;SDS011;50709;52.648;4.764;2024-02-26T13:35:38;5.05;;;2.50;;
64387;SDS011;50709;52.648;4.764;2024-02-26T13:38:05;5.75;;;2.45;;
64387;SDS011;50709;52.648;4.764;2024-02-26T13:40:31;4.75;;;2.35;;
64387;SDS011;50709;52.648;4.764;2024-02-26T13:42:57;5.70;;;3.08;;
64387;SDS011;50709;52.648;4.764;2024-02-26T13:45:23;7.80;;;3.42;;
64387;SDS011;50709;52.648;4.764;2024-02-26T13:47:49;7.13;;;3.22;;
64387;SDS011;50709;52.648;4.764;2024-02-26T13:50:14;5.60;;;2.85;;
64387;SDS011;50709;52.648;4.764;2024-02-26T13:52:40;8.65;;;3.15;;
64387;SDS011;50709;52.648;4.764;2024-02-26T13:55:05;5.90;;;2.45;;
64387;SDS011;50709;52.648;4.764;2024-02-26T13:57:32;5.25;;;2.42;;
64387;SDS011;50709;52.648;4.764;2024-02-26T13:59:58;6.38;;;2.40;;
64387;SDS011;50709;52.648;4.764;2024-02-26T14:02:23;4.72;;;2.83;;
64387;SDS011;50709;52.648;4.764;2024-02-26T14:04:48;5.68;;;2.70;;
64387;SDS011;50709;52.648;4.764;2024-02-26T14:07:14;4.85;;;2.30;;
64387;SDS011;50709;52.648;4.764;2024-02-26T14:09:42;4.38;;;1.63;;
64387;SDS011;50709;52.648;4.764;2024-02-26T14:12:07;5.35;;;2.50;;
64387;SDS011;50709;52.648;4.764;2024-02-26T14:14:33;3.20;;;2.20;;
64387;SDS011;50709;52.648;4.764;2024-02-26T14:17:01;3.63;;;1.80;;
64387;SDS011;50709;52.648;4.764;2024-02-26T14:19:28;3.72;;;2.03;;
64387;SDS011;50709;52.648;4.764;2024-02-26T14:21:54;4.35;;;2.28;;
64387;SDS011;50709;52.648;4.764;2024-02-26T14:24:19;4.35;;;2.08;;
64387;SDS011;50709;52.648;4.764;2024-02-26T14:26:44;2.95;;;2.13;;
64387;SDS011;50709;52.648;4.764;2024-02-26T14:29:10;2.70;;;1.90;;
64387;SDS011;50709;52.648;4.764;2024-02-26T14:31:36;6.60;;;2.55;;
64387;SDS011;50709;52.648;4.764;2024-02-26T14:34:01;3.47;;;1.88;;
64387;SDS011;50709;52.648;4.764;2024-02-26T14:36:27;4.75;;;2.10;;
64387;SDS011;50709;52.648;4.764;2024-02-26T14:38:52;8.38;;;3.03;;
64387;SDS011;50709;52.648;4.764;2024-02-26T14:41:18;2.30;;;1.65;;
64387;SDS011;50709;52.648;4.764;2024-02-26T14:43:43;2.85;;;1.80;;
64387;SDS011;50709;52.648;4.764;2024-02-26T14:46:10;4.82;;;2.50;;
64387;SDS011;50709;52.648;4.764;2024-02-26T14:48:35;3.80;;;2.33;;
64387;SDS011;50709;52.648;4.764;2024-02-26T14:51:00;3.50;;;1.42;;
64387;SDS011;50709;52.648;4.764;2024-02-26T14:53:26;4.50;;;2.22;;
64387;SDS011;50709;52.648;4.764;2024-02-26T14:55:52;1.98;;;1.40;;
64387;SDS011;50709;52.648;4.764;2024-02-26T14:58:17;3.40;;;1.95;;
64387;SDS011;50709;52.648;4.764;2024-02-26T15:00:43;4.25;;;1.88;;